sim
Sign-in with your pilot id or email,
or register
Callsign
Passwort

Schedule Details

Flight Number: EWG3596
Departure: Hannover Langenhagen Airport (EDDV) at 02:20
Arrival: Palma de Mallorca Airport (LEPA) at 04:40
Route: Eurowings Passenger Schedule. Enter filed route here before submitting Pirep.

Weather Information
Getting current METAR information for EDDV 191150Z 10009KT 070V130 9999 FEW060TCU 22/09 Q1004 NOSIG
Getting current METAR information for LEPA 191200Z 24016KT 9999 FEW030 SCT045 20/09 Q1009 NOSIG

Schedule Frequency

Route Map